sensor_id;sensor_type;location;lat;lon;timestamp;P1;durP1;ratioP1;P2;durP2;ratioP2
75195;SDS011;63773;42.282;22.782;2022-11-15T00:00:42;48.58;;;22.38;;
75195;SDS011;63773;42.282;22.782;2022-11-15T00:03:07;42.97;;;20.30;;
75195;SDS011;63773;42.282;22.782;2022-11-15T00:05:36;42.58;;;18.33;;
75195;SDS011;63773;42.282;22.782;2022-11-15T00:08:01;46.42;;;21.38;;
75195;SDS011;63773;42.282;22.782;2022-11-15T00:10:26;43.47;;;19.65;;
75195;SDS011;63773;42.282;22.782;2022-11-15T00:12:52;38.05;;;19.38;;
75195;SDS011;63773;42.282;22.782;2022-11-15T00:15:17;39.47;;;19.05;;
75195;SDS011;63773;42.282;22.782;2022-11-15T00:17:43;42.15;;;18.42;;
75195;SDS011;63773;42.282;22.782;2022-11-15T00:20:08;39.85;;;19.75;;
75195;SDS011;63773;42.282;22.782;2022-11-15T00:22:34;43.13;;;19.85;;
75195;SDS011;63773;42.282;22.782;2022-11-15T00:24:59;45.65;;;19.20;;
75195;SDS011;63773;42.282;22.782;2022-11-15T00:27:26;40.85;;;20.23;;
75195;SDS011;63773;42.282;22.782;2022-11-15T00:29:52;40.72;;;18.95;;
75195;SDS011;63773;42.282;22.782;2022-11-15T00:32:18;43.58;;;20.63;;
75195;SDS011;63773;42.282;22.782;2022-11-15T00:34:43;42.53;;;19.95;;
75195;SDS011;63773;42.282;22.782;2022-11-15T00:37:09;38.90;;;19.10;;
75195;SDS011;63773;42.282;22.782;2022-11-15T00:39:34;39.92;;;17.48;;
75195;SDS011;63773;42.282;22.782;2022-11-15T00:41:59;46.72;;;17.98;;
75195;SDS011;63773;42.282;22.782;2022-11-15T00:44:25;46.72;;;20.08;;
75195;SDS011;63773;42.282;22.782;2022-11-15T00:46:50;40.55;;;19.92;;
75195;SDS011;63773;42.282;22.782;2022-11-15T00:49:15;40.78;;;17.73;;
75195;SDS011;63773;42.282;22.782;2022-11-15T00:51:41;41.38;;;18.73;;
75195;SDS011;63773;42.282;22.782;2022-11-15T00:54:06;42.30;;;18.48;;
75195;SDS011;63773;42.282;22.782;2022-11-15T00:56:31;38.47;;;16.20;;
75195;SDS011;63773;42.282;22.782;2022-11-15T00:58:57;34.22;;;14.80;;
75195;SDS011;63773;42.282;22.782;2022-11-15T01:01:22;32.00;;;14.52;;
75195;SDS011;63773;42.282;22.782;2022-11-15T01:03:48;38.58;;;17.15;;
75195;SDS011;63773;42.282;22.782;2022-11-15T01:06:13;34.13;;;16.55;;
75195;SDS011;63773;42.282;22.782;2022-11-15T01:08:39;31.85;;;16.50;;
75195;SDS011;63773;42.282;22.782;2022-11-15T01:11:06;33.75;;;14.98;;
75195;SDS011;63773;42.282;22.782;2022-11-15T01:13:34;39.80;;;16.13;;
75195;SDS011;63773;42.282;22.782;2022-11-15T01:16:13;36.10;;;14.57;;
75195;SDS011;63773;42.282;22.782;2022-11-15T01:18:45;34.67;;;15.60;;
75195;SDS011;63773;42.282;22.782;2022-11-15T01:21:15;36.00;;;17.65;;
75195;SDS011;63773;42.282;22.782;2022-11-15T01:23:42;38.30;;;17.33;;
75195;SDS011;63773;42.282;22.782;2022-11-15T01:26:10;45.33;;;19.23;;
75195;SDS011;63773;42.282;22.782;2022-11-15T01:28:38;46.67;;;18.98;;
75195;SDS011;63773;42.282;22.782;2022-11-15T01:31:05;41.08;;;18.08;;
75195;SDS011;63773;42.282;22.782;2022-11-15T01:33:34;38.15;;;18.58;;
75195;SDS011;63773;42.282;22.782;2022-11-15T01:36:05;42.63;;;18.40;;
75195;SDS011;63773;42.282;22.782;2022-11-15T01:38:31;43.03;;;18.65;;
75195;SDS011;63773;42.282;22.782;2022-11-15T01:40:57;47.03;;;18.95;;
75195;SDS011;63773;42.282;22.782;2022-11-15T01:43:33;45.85;;;18.63;;
75195;SDS011;63773;42.282;22.782;2022-11-15T01:46:02;44.88;;;18.75;;
75195;SDS011;63773;42.282;22.782;2022-11-15T01:48:34;39.60;;;19.20;;
75195;SDS011;63773;42.282;22.782;2022-11-15T01:51:00;41.03;;;18.90;;
75195;SDS011;63773;42.282;22.782;2022-11-15T01:53:30;41.53;;;17.45;;
75195;SDS011;63773;42.282;22.782;2022-11-15T01:55:58;37.55;;;17.45;;
75195;SDS011;63773;42.282;22.782;2022-11-15T01:58:30;43.10;;;17.42;;
75195;SDS011;63773;42.282;22.782;2022-11-15T02:00:57;40.88;;;17.02;;
75195;SDS011;63773;42.282;22.782;2022-11-15T02:03:23;39.05;;;16.83;;
75195;SDS011;63773;42.282;22.782;2022-11-15T02:05:56;36.55;;;17.42;;
75195;SDS011;63773;42.282;22.782;2022-11-15T02:08:22;37.92;;;16.70;;
75195;SDS011;63773;42.282;22.782;2022-11-15T02:10:48;37.22;;;15.52;;
75195;SDS011;63773;42.282;22.782;2022-11-15T02:13:14;49.22;;;19.02;;
75195;SDS011;63773;42.282;22.782;2022-11-15T02:15:44;38.40;;;17.20;;
75195;SDS011;63773;42.282;22.782;2022-11-15T02:18:26;45.85;;;20.23;;
75195;SDS011;63773;42.282;22.782;2022-11-15T02:23:35;46.78;;;20.65;;
75195;SDS011;63773;42.282;22.782;2022-11-15T02:39:23;43.78;;;18.83;;
75195;SDS011;63773;42.282;22.782;2022-11-15T02:45:07;34.63;;;15.88;;
75195;SDS011;63773;42.282;22.782;2022-11-15T02:47:41;40.40;;;17.52;;
75195;SDS011;63773;42.282;22.782;2022-11-15T02:50:12;40.05;;;16.13;;
75195;SDS011;63773;42.282;22.782;2022-11-15T02:52:44;40.60;;;18.40;;
75195;SDS011;63773;42.282;22.782;2022-11-15T03:00:58;54.47;;;19.67;;
75195;SDS011;63773;42.282;22.782;2022-11-15T03:06:27;47.03;;;18.92;;
75195;SDS011;63773;42.282;22.782;2022-11-15T03:11:39;62.30;;;23.17;;
75195;SDS011;63773;42.282;22.782;2022-11-15T03:17:25;68.93;;;24.05;;
75195;SDS011;63773;42.282;22.782;2022-11-15T03:19:56;61.05;;;23.17;;
75195;SDS011;63773;42.282;22.782;2022-11-15T03:22:24;61.05;;;22.75;;
75195;SDS011;63773;42.282;22.782;2022-11-15T03:24:57;67.93;;;23.23;;
75195;SDS011;63773;42.282;22.782;2022-11-15T03:27:27;63.55;;;23.40;;
75195;SDS011;63773;42.282;22.782;2022-11-15T03:29:58;57.50;;;20.13;;
75195;SDS011;63773;42.282;22.782;2022-11-15T03:32:30;49.65;;;20.60;;
75195;SDS011;63773;42.282;22.782;2022-11-15T03:37:32;40.90;;;18.73;;
75195;SDS011;63773;42.282;22.782;2022-11-15T03:40:02;46.85;;;18.77;;
75195;SDS011;63773;42.282;22.782;2022-11-15T03:42:34;53.25;;;22.30;;
75195;SDS011;63773;42.282;22.782;2022-11-15T03:45:16;45.10;;;19.38;;
75195;SDS011;63773;42.282;22.782;2022-11-15T03:48:10;44.78;;;17.15;;
75195;SDS011;63773;42.282;22.782;2022-11-15T03:50:37;50.60;;;19.58;;
75195;SDS011;63773;42.282;22.782;2022-11-15T03:53:03;49.00;;;19.10;;
75195;SDS011;63773;42.282;22.782;2022-11-15T03:55:31;54.95;;;21.98;;
75195;SDS011;63773;42.282;22.782;2022-11-15T03:57:57;60.35;;;20.85;;
75195;SDS011;63773;42.282;22.782;2022-11-15T04:00:24;49.35;;;19.17;;
75195;SDS011;63773;42.282;22.782;2022-11-15T04:02:52;55.80;;;21.52;;
75195;SDS011;63773;42.282;22.782;2022-11-15T04:05:18;65.63;;;19.77;;
75195;SDS011;63773;42.282;22.782;2022-11-15T04:07:43;64.32;;;23.13;;
75195;SDS011;63773;42.282;22.782;2022-11-15T04:10:09;65.20;;;21.05;;
75195;SDS011;63773;42.282;22.782;2022-11-15T04:12:36;65.78;;;23.33;;
75195;SDS011;63773;42.282;22.782;2022-11-15T04:15:12;71.90;;;23.63;;
75195;SDS011;63773;42.282;22.782;2022-11-15T04:17:43;71.53;;;26.52;;
75195;SDS011;63773;42.282;22.782;2022-11-15T04:22:55;73.45;;;24.98;;
75195;SDS011;63773;42.282;22.782;2022-11-15T04:25:41;62.50;;;24.25;;
75195;SDS011;63773;42.282;22.782;2022-11-15T04:28:07;73.97;;;22.55;;
75195;SDS011;63773;42.282;22.782;2022-11-15T04:30:33;61.47;;;20.95;;
75195;SDS011;63773;42.282;22.782;2022-11-15T04:32:58;71.60;;;23.77;;
75195;SDS011;63773;42.282;22.782;2022-11-15T04:35:24;71.22;;;24.75;;
75195;SDS011;63773;42.282;22.782;2022-11-15T04:37:49;70.90;;;23.55;;
75195;SDS011;63773;42.282;22.782;2022-11-15T04:40:15;65.10;;;21.80;;
75195;SDS011;63773;42.282;22.782;2022-11-15T04:42:41;65.43;;;22.08;;
75195;SDS011;63773;42.282;22.782;2022-11-15T04:45:09;70.70;;;22.83;;
75195;SDS011;63773;42.282;22.782;2022-11-15T04:47:35;72.30;;;23.95;;
75195;SDS011;63773;42.282;22.782;2022-11-15T04:50:01;77.63;;;25.92;;
75195;SDS011;63773;42.282;22.782;2022-11-15T04:52:26;79.45;;;23.90;;
75195;SDS011;63773;42.282;22.782;2022-11-15T04:54:51;77.65;;;24.10;;
75195;SDS011;63773;42.282;22.782;2022-11-15T04:57:17;73.50;;;25.23;;
75195;SDS011;63773;42.282;22.782;2022-11-15T04:59:43;87.82;;;25.00;;
75195;SDS011;63773;42.282;22.782;2022-11-15T05:02:08;82.85;;;25.75;;
75195;SDS011;63773;42.282;22.782;2022-11-15T05:04:33;79.30;;;24.80;;
75195;SDS011;63773;42.282;22.782;2022-11-15T05:06:59;74.05;;;26.73;;
75195;SDS011;63773;42.282;22.782;2022-11-15T05:09:24;79.68;;;26.80;;
75195;SDS011;63773;42.282;22.782;2022-11-15T05:11:50;64.15;;;23.45;;
75195;SDS011;63773;42.282;22.782;2022-11-15T05:14:15;64.53;;;21.13;;
75195;SDS011;63773;42.282;22.782;2022-11-15T05:16:41;45.03;;;17.80;;
75195;SDS011;63773;42.282;22.782;2022-11-15T05:19:07;42.10;;;16.30;;
75195;SDS011;63773;42.282;22.782;2022-11-15T05:21:33;47.70;;;16.50;;
75195;SDS011;63773;42.282;22.782;2022-11-15T05:23:58;49.08;;;21.20;;
75195;SDS011;63773;42.282;22.782;2022-11-15T05:26:24;52.05;;;18.60;;
75195;SDS011;63773;42.282;22.782;2022-11-15T05:28:56;52.13;;;19.83;;
75195;SDS011;63773;42.282;22.782;2022-11-15T05:31:23;58.05;;;19.67;;
75195;SDS011;63773;42.282;22.782;2022-11-15T05:33:50;58.20;;;17.83;;
75195;SDS011;63773;42.282;22.782;2022-11-15T05:36:25;54.63;;;17.80;;
75195;SDS011;63773;42.282;22.782;2022-11-15T05:38:52;57.35;;;18.85;;
75195;SDS011;63773;42.282;22.782;2022-11-15T05:41:19;46.80;;;18.83;;
75195;SDS011;63773;42.282;22.782;2022-11-15T05:43:47;53.13;;;19.42;;
75195;SDS011;63773;42.282;22.782;2022-11-15T05:46:14;55.80;;;17.52;;
75195;SDS011;63773;42.282;22.782;2022-11-15T05:48:41;50.17;;;18.90;;
75195;SDS011;63773;42.282;22.782;2022-11-15T05:51:10;60.10;;;17.98;;
75195;SDS011;63773;42.282;22.782;2022-11-15T05:53:38;59.75;;;19.42;;
75195;SDS011;63773;42.282;22.782;2022-11-15T05:56:04;44.53;;;17.98;;
75195;SDS011;63773;42.282;22.782;2022-11-15T05:58:32;43.55;;;15.27;;
75195;SDS011;63773;42.282;22.782;2022-11-15T06:00:58;39.88;;;15.93;;
75195;SDS011;63773;42.282;22.782;2022-11-15T06:03:25;41.58;;;16.13;;
75195;SDS011;63773;42.282;22.782;2022-11-15T06:05:50;42.25;;;16.95;;
75195;SDS011;63773;42.282;22.782;2022-11-15T06:08:16;43.30;;;16.17;;
75195;SDS011;63773;42.282;22.782;2022-11-15T06:10:41;38.53;;;16.30;;
75195;SDS011;63773;42.282;22.782;2022-11-15T06:13:06;45.67;;;16.88;;
75195;SDS011;63773;42.282;22.782;2022-11-15T06:15:32;46.40;;;17.65;;
75195;SDS011;63773;42.282;22.782;2022-11-15T06:18:01;54.40;;;18.00;;
75195;SDS011;63773;42.282;22.782;2022-11-15T06:20:27;52.97;;;19.75;;
75195;SDS011;63773;42.282;22.782;2022-11-15T06:22:59;48.53;;;17.00;;
75195;SDS011;63773;42.282;22.782;2022-11-15T06:25:26;55.58;;;21.88;;
75195;SDS011;63773;42.282;22.782;2022-11-15T06:27:56;54.58;;;17.27;;
75195;SDS011;63773;42.282;22.782;2022-11-15T06:30:23;52.33;;;20.88;;
75195;SDS011;63773;42.282;22.782;2022-11-15T06:32:49;49.58;;;18.35;;
75195;SDS011;63773;42.282;22.782;2022-11-15T06:35:15;47.15;;;17.80;;
75195;SDS011;63773;42.282;22.782;2022-11-15T06:37:41;208.82;;;75.55;;
75195;SDS011;63773;42.282;22.782;2022-11-15T06:40:08;259.88;;;98.65;;
75195;SDS011;63773;42.282;22.782;2022-11-15T06:42:34;88.95;;;34.78;;
75195;SDS011;63773;42.282;22.782;2022-11-15T06:45:00;54.05;;;22.58;;
75195;SDS011;63773;42.282;22.782;2022-11-15T06:47:25;51.75;;;20.33;;
75195;SDS011;63773;42.282;22.782;2022-11-15T06:49:50;50.05;;;18.92;;
75195;SDS011;63773;42.282;22.782;2022-11-15T06:52:16;50.53;;;19.17;;
75195;SDS011;63773;42.282;22.782;2022-11-15T06:54:43;44.90;;;18.23;;
75195;SDS011;63773;42.282;22.782;2022-11-15T06:57:09;44.72;;;16.63;;
75195;SDS011;63773;42.282;22.782;2022-11-15T06:59:34;37.50;;;15.93;;
75195;SDS011;63773;42.282;22.782;2022-11-15T07:01:59;51.95;;;17.75;;
75195;SDS011;63773;42.282;22.782;2022-11-15T07:04:25;55.17;;;16.85;;
75195;SDS011;63773;42.282;22.782;2022-11-15T07:06:50;52.45;;;17.33;;
75195;SDS011;63773;42.282;22.782;2022-11-15T07:09:15;47.92;;;18.15;;
75195;SDS011;63773;42.282;22.782;2022-11-15T07:11:41;48.30;;;17.20;;
75195;SDS011;63773;42.282;22.782;2022-11-15T07:14:06;55.60;;;18.13;;
75195;SDS011;63773;42.282;22.782;2022-11-15T07:16:32;56.45;;;19.13;;
75195;SDS011;63773;42.282;22.782;2022-11-15T07:18:57;47.72;;;17.65;;
75195;SDS011;63773;42.282;22.782;2022-11-15T07:21:23;47.55;;;17.38;;
75195;SDS011;63773;42.282;22.782;2022-11-15T07:23:49;43.60;;;17.10;;
75195;SDS011;63773;42.282;22.782;2022-11-15T07:26:14;38.17;;;14.82;;
75195;SDS011;63773;42.282;22.782;2022-11-15T07:28:39;44.17;;;14.20;;
75195;SDS011;63773;42.282;22.782;2022-11-15T07:31:06;37.28;;;13.52;;
75195;SDS011;63773;42.282;22.782;2022-11-15T07:33:33;43.70;;;14.05;;
75195;SDS011;63773;42.282;22.782;2022-11-15T07:35:59;35.83;;;12.13;;
75195;SDS011;63773;42.282;22.782;2022-11-15T07:38:26;42.42;;;15.45;;
75195;SDS011;63773;42.282;22.782;2022-11-15T07:40:58;34.42;;;13.10;;
75195;SDS011;63773;42.282;22.782;2022-11-15T07:43:28;35.53;;;14.63;;
75195;SDS011;63773;42.282;22.782;2022-11-15T07:45:54;36.45;;;14.45;;
75195;SDS011;63773;42.282;22.782;2022-11-15T07:48:20;34.28;;;12.63;;
75195;SDS011;63773;42.282;22.782;2022-11-15T07:50:46;33.08;;;13.48;;
75195;SDS011;63773;42.282;22.782;2022-11-15T07:53:11;33.95;;;13.05;;
75195;SDS011;63773;42.282;22.782;2022-11-15T07:55:37;30.25;;;12.98;;
75195;SDS011;63773;42.282;22.782;2022-11-15T07:58:06;31.70;;;13.00;;
75195;SDS011;63773;42.282;22.782;2022-11-15T08:00:36;31.35;;;14.05;;
75195;SDS011;63773;42.282;22.782;2022-11-15T08:03:09;25.67;;;12.23;;
75195;SDS011;63773;42.282;22.782;2022-11-15T08:05:37;33.17;;;14.00;;
75195;SDS011;63773;42.282;22.782;2022-11-15T08:08:05;30.20;;;13.98;;
75195;SDS011;63773;42.282;22.782;2022-11-15T08:10:32;28.02;;;12.70;;
75195;SDS011;63773;42.282;22.782;2022-11-15T08:21:32;20.77;;;12.10;;
75195;SDS011;63773;42.282;22.782;2022-11-15T08:23:57;29.60;;;12.68;;
75195;SDS011;63773;42.282;22.782;2022-11-15T08:26:23;28.38;;;13.32;;
75195;SDS011;63773;42.282;22.782;2022-11-15T08:28:49;28.27;;;12.40;;
75195;SDS011;63773;42.282;22.782;2022-11-15T08:31:16;26.98;;;11.88;;
75195;SDS011;63773;42.282;22.782;2022-11-15T08:33:43;28.05;;;13.27;;
75195;SDS011;63773;42.282;22.782;2022-11-15T08:36:13;24.10;;;11.90;;
75195;SDS011;63773;42.282;22.782;2022-11-15T08:38:40;19.92;;;10.82;;
75195;SDS011;63773;42.282;22.782;2022-11-15T08:41:05;24.42;;;10.88;;
75195;SDS011;63773;42.282;22.782;2022-11-15T08:43:31;19.73;;;10.00;;
75195;SDS011;63773;42.282;22.782;2022-11-15T08:45:57;24.25;;;11.43;;
75195;SDS011;63773;42.282;22.782;2022-11-15T08:48:23;23.33;;;11.10;;
75195;SDS011;63773;42.282;22.782;2022-11-15T08:50:48;23.15;;;10.98;;
75195;SDS011;63773;42.282;22.782;2022-11-15T08:53:14;22.08;;;12.32;;
75195;SDS011;63773;42.282;22.782;2022-11-15T08:55:40;24.73;;;11.55;;
75195;SDS011;63773;42.282;22.782;2022-11-15T08:58:06;21.70;;;12.88;;
75195;SDS011;63773;42.282;22.782;2022-11-15T09:00:32;22.88;;;11.63;;
75195;SDS011;63773;42.282;22.782;2022-11-15T09:02:58;23.90;;;11.05;;
75195;SDS011;63773;42.282;22.782;2022-11-15T09:05:24;22.73;;;10.93;;
75195;SDS011;63773;42.282;22.782;2022-11-15T09:07:53;22.25;;;11.05;;
75195;SDS011;63773;42.282;22.782;2022-11-15T09:10:20;29.55;;;14.65;;
75195;SDS011;63773;42.282;22.782;2022-11-15T09:12:45;26.23;;;10.05;;
75195;SDS011;63773;42.282;22.782;2022-11-15T09:17:39;19.90;;;10.32;;
75195;SDS011;63773;42.282;22.782;2022-11-15T09:20:04;20.48;;;10.07;;
75195;SDS011;63773;42.282;22.782;2022-11-15T09:22:30;18.90;;;9.80;;
75195;SDS011;63773;42.282;22.782;2022-11-15T09:24:56;20.13;;;9.90;;
75195;SDS011;63773;42.282;22.782;2022-11-15T09:27:21;17.85;;;9.05;;
75195;SDS011;63773;42.282;22.782;2022-11-15T09:29:46;19.23;;;9.45;;
75195;SDS011;63773;42.282;22.782;2022-11-15T09:32:12;16.33;;;9.02;;
75195;SDS011;63773;42.282;22.782;2022-11-15T09:34:37;23.30;;;11.57;;
75195;SDS011;63773;42.282;22.782;2022-11-15T09:37:03;17.73;;;9.93;;
75195;SDS011;63773;42.282;22.782;2022-11-15T09:39:28;21.90;;;10.40;;
75195;SDS011;63773;42.282;22.782;2022-11-15T09:49:16;16.67;;;10.10;;
75195;SDS011;63773;42.282;22.782;2022-11-15T09:51:43;16.88;;;8.43;;
75195;SDS011;63773;42.282;22.782;2022-11-15T09:54:23;15.55;;;8.77;;
75195;SDS011;63773;42.282;22.782;2022-11-15T09:56:55;19.42;;;9.82;;
75195;SDS011;63773;42.282;22.782;2022-11-15T09:59:45;18.88;;;9.32;;
75195;SDS011;63773;42.282;22.782;2022-11-15T10:02:30;18.23;;;9.43;;
75195;SDS011;63773;42.282;22.782;2022-11-15T10:04:57;14.57;;;8.60;;
75195;SDS011;63773;42.282;22.782;2022-11-15T10:07:28;14.95;;;7.95;;
75195;SDS011;63773;42.282;22.782;2022-11-15T10:12:36;15.55;;;8.25;;
75195;SDS011;63773;42.282;22.782;2022-11-15T10:15:14;17.75;;;10.20;;
75195;SDS011;63773;42.282;22.782;2022-11-15T10:20:46;15.10;;;8.50;;
75195;SDS011;63773;42.282;22.782;2022-11-15T10:25:40;16.13;;;8.70;;
75195;SDS011;63773;42.282;22.782;2022-11-15T10:30:59;15.10;;;8.48;;
75195;SDS011;63773;42.282;22.782;2022-11-15T10:36:39;15.98;;;8.18;;
75195;SDS011;63773;42.282;22.782;2022-11-15T10:41:12;17.88;;;9.50;;
75195;SDS011;63773;42.282;22.782;2022-11-15T10:43:38;16.92;;;8.45;;
75195;SDS011;63773;42.282;22.782;2022-11-15T10:46:19;17.67;;;9.52;;
75195;SDS011;63773;42.282;22.782;2022-11-15T10:48:47;17.13;;;8.40;;
75195;SDS011;63773;42.282;22.782;2022-11-15T10:51:22;16.88;;;8.40;;
75195;SDS011;63773;42.282;22.782;2022-11-15T10:53:53;18.48;;;8.23;;
75195;SDS011;63773;42.282;22.782;2022-11-15T10:56:22;13.50;;;7.60;;
75195;SDS011;63773;42.282;22.782;2022-11-15T10:58:56;16.50;;;8.15;;
75195;SDS011;63773;42.282;22.782;2022-11-15T11:01:24;15.85;;;8.55;;
75195;SDS011;63773;42.282;22.782;2022-11-15T11:04:24;15.70;;;8.88;;
75195;SDS011;63773;42.282;22.782;2022-11-15T11:11:59;15.27;;;9.77;;
75195;SDS011;63773;42.282;22.782;2022-11-15T11:14:26;16.17;;;9.88;;
75195;SDS011;63773;42.282;22.782;2022-11-15T11:22:38;15.52;;;8.30;;
75195;SDS011;63773;42.282;22.782;2022-11-15T11:25:17;13.40;;;8.77;;
75195;SDS011;63773;42.282;22.782;2022-11-15T11:33:12;13.73;;;8.32;;
75195;SDS011;63773;42.282;22.782;2022-11-15T11:36:02;12.75;;;7.90;;
75195;SDS011;63773;42.282;22.782;2022-11-15T11:38:44;13.82;;;7.68;;
75195;SDS011;63773;42.282;22.782;2022-11-15T11:44:21;16.15;;;8.05;;
75195;SDS011;63773;42.282;22.782;2022-11-15T11:46:55;15.90;;;9.05;;
75195;SDS011;63773;42.282;22.782;2022-11-15T11:49:28;18.88;;;9.93;;
75195;SDS011;63773;42.282;22.782;2022-11-15T11:52:17;17.30;;;9.52;;
75195;SDS011;63773;42.282;22.782;2022-11-15T11:54:59;14.35;;;8.13;;
75195;SDS011;63773;42.282;22.782;2022-11-15T12:03:11;20.02;;;8.25;;
75195;SDS011;63773;42.282;22.782;2022-11-15T12:05:47;26.20;;;11.18;;
75195;SDS011;63773;42.282;22.782;2022-11-15T12:11:12;29.10;;;14.02;;
75195;SDS011;63773;42.282;22.782;2022-11-15T13:36:47;12.60;;;8.02;;
75195;SDS011;63773;42.282;22.782;2022-11-15T13:39:33;12.60;;;8.02;;
75195;SDS011;63773;42.282;22.782;2022-11-15T13:41:59;16.60;;;9.10;;
75195;SDS011;63773;42.282;22.782;2022-11-15T13:44:31;15.07;;;8.25;;
75195;SDS011;63773;42.282;22.782;2022-11-15T13:47:05;15.68;;;9.25;;
75195;SDS011;63773;42.282;22.782;2022-11-15T13:49:37;17.67;;;10.50;;
75195;SDS011;63773;42.282;22.782;2022-11-15T13:52:04;17.30;;;10.10;;
75195;SDS011;63773;42.282;22.782;2022-11-15T13:54:37;20.98;;;9.35;;
75195;SDS011;63773;42.282;22.782;2022-11-15T13:57:10;16.80;;;8.60;;
75195;SDS011;63773;42.282;22.782;2022-11-15T13:59:47;17.30;;;9.23;;
75195;SDS011;63773;42.282;22.782;2022-11-15T14:02:17;29.05;;;13.98;;
75195;SDS011;63773;42.282;22.782;2022-11-15T14:04:48;29.80;;;14.07;;
75195;SDS011;63773;42.282;22.782;2022-11-15T14:07:17;31.45;;;14.93;;
75195;SDS011;63773;42.282;22.782;2022-11-15T14:09:45;31.42;;;14.88;;
75195;SDS011;63773;42.282;22.782;2022-11-15T14:15:19;78.93;;;23.58;;
75195;SDS011;63773;42.282;22.782;2022-11-15T14:17:53;85.82;;;33.55;;
75195;SDS011;63773;42.282;22.782;2022-11-15T14:22:53;29.13;;;14.82;;
75195;SDS011;63773;42.282;22.782;2022-11-15T14:25:30;37.30;;;19.30;;
75195;SDS011;63773;42.282;22.782;2022-11-15T14:30:34;33.35;;;14.80;;
75195;SDS011;63773;42.282;22.782;2022-11-15T14:32:59;20.88;;;11.10;;
75195;SDS011;63773;42.282;22.782;2022-11-15T14:35:25;18.98;;;9.60;;
75195;SDS011;63773;42.282;22.782;2022-11-15T14:37:50;16.52;;;9.75;;
75195;SDS011;63773;42.282;22.782;2022-11-15T14:40:17;26.15;;;10.38;;
75195;SDS011;63773;42.282;22.782;2022-11-15T14:42:44;17.00;;;9.98;;
75195;SDS011;63773;42.282;22.782;2022-11-15T14:45:12;13.07;;;8.05;;
75195;SDS011;63773;42.282;22.782;2022-11-15T14:47:39;17.92;;;9.00;;
75195;SDS011;63773;42.282;22.782;2022-11-15T14:50:05;16.25;;;9.30;;
75195;SDS011;63773;42.282;22.782;2022-11-15T14:52:32;18.35;;;10.10;;
75195;SDS011;63773;42.282;22.782;2022-11-15T14:55:02;16.65;;;10.00;;
75195;SDS011;63773;42.282;22.782;2022-11-15T14:57:29;16.58;;;10.25;;
75195;SDS011;63773;42.282;22.782;2022-11-15T14:59:55;19.90;;;11.57;;
75195;SDS011;63773;42.282;22.782;2022-11-15T15:02:22;17.63;;;10.48;;
75195;SDS011;63773;42.282;22.782;2022-11-15T15:04:50;19.48;;;10.75;;
75195;SDS011;63773;42.282;22.782;2022-11-15T15:07:16;20.52;;;10.52;;
75195;SDS011;63773;42.282;22.782;2022-11-15T15:09:42;17.98;;;9.73;;
75195;SDS011;63773;42.282;22.782;2022-11-15T15:12:17;18.67;;;9.23;;
75195;SDS011;63773;42.282;22.782;2022-11-15T15:14:48;16.23;;;9.38;;
75195;SDS011;63773;42.282;22.782;2022-11-15T15:17:14;18.00;;;8.90;;
75195;SDS011;63773;42.282;22.782;2022-11-15T15:19:41;20.95;;;10.85;;
75195;SDS011;63773;42.282;22.782;2022-11-15T15:22:25;20.77;;;11.90;;
75195;SDS011;63773;42.282;22.782;2022-11-15T15:24:54;23.67;;;12.60;;
75195;SDS011;63773;42.282;22.782;2022-11-15T15:27:19;35.13;;;14.40;;
75195;SDS011;63773;42.282;22.782;2022-11-15T15:29:45;24.17;;;13.90;;
75195;SDS011;63773;42.282;22.782;2022-11-15T15:32:10;21.73;;;11.77;;
75195;SDS011;63773;42.282;22.782;2022-11-15T15:34:36;20.50;;;10.98;;
75195;SDS011;63773;42.282;22.782;2022-11-15T15:39:47;17.27;;;9.93;;
75195;SDS011;63773;42.282;22.782;2022-11-15T15:42:12;19.38;;;10.55;;
75195;SDS011;63773;42.282;22.782;2022-11-15T15:44:38;19.05;;;9.82;;
75195;SDS011;63773;42.282;22.782;2022-11-15T15:47:07;18.95;;;10.57;;
75195;SDS011;63773;42.282;22.782;2022-11-15T15:49:36;19.08;;;10.50;;
75195;SDS011;63773;42.282;22.782;2022-11-15T15:52:02;19.88;;;10.65;;
75195;SDS011;63773;42.282;22.782;2022-11-15T15:54:27;19.17;;;10.10;;
75195;SDS011;63773;42.282;22.782;2022-11-15T15:56:52;23.23;;;10.65;;
75195;SDS011;63773;42.282;22.782;2022-11-15T15:59:18;28.85;;;14.27;;
75195;SDS011;63773;42.282;22.782;2022-11-15T16:01:43;32.40;;;16.48;;
75195;SDS011;63773;42.282;22.782;2022-11-15T16:04:09;35.70;;;17.63;;
75195;SDS011;63773;42.282;22.782;2022-11-15T16:06:38;28.10;;;15.18;;
75195;SDS011;63773;42.282;22.782;2022-11-15T16:09:08;28.63;;;15.80;;
75195;SDS011;63773;42.282;22.782;2022-11-15T16:11:36;30.20;;;16.10;;
75195;SDS011;63773;42.282;22.782;2022-11-15T16:14:01;32.17;;;17.00;;
75195;SDS011;63773;42.282;22.782;2022-11-15T16:16:26;26.20;;;13.98;;
75195;SDS011;63773;42.282;22.782;2022-11-15T16:18:52;27.95;;;14.73;;
75195;SDS011;63773;42.282;22.782;2022-11-15T16:21:18;29.90;;;15.48;;
75195;SDS011;63773;42.282;22.782;2022-11-15T16:23:44;39.55;;;22.85;;
75195;SDS011;63773;42.282;22.782;2022-11-15T16:26:28;42.55;;;22.63;;
75195;SDS011;63773;42.282;22.782;2022-11-15T16:28:54;35.35;;;19.58;;
75195;SDS011;63773;42.282;22.782;2022-11-15T16:31:20;33.60;;;18.02;;
75195;SDS011;63773;42.282;22.782;2022-11-15T16:33:46;51.45;;;28.48;;
75195;SDS011;63773;42.282;22.782;2022-11-15T16:36:19;39.72;;;20.65;;
75195;SDS011;63773;42.282;22.782;2022-11-15T16:38:46;41.83;;;20.48;;
75195;SDS011;63773;42.282;22.782;2022-11-15T16:41:12;39.83;;;21.60;;
75195;SDS011;63773;42.282;22.782;2022-11-15T16:43:38;46.58;;;22.63;;
75195;SDS011;63773;42.282;22.782;2022-11-15T16:46:06;46.42;;;23.80;;
75195;SDS011;63773;42.282;22.782;2022-11-15T16:48:43;59.03;;;27.55;;
75195;SDS011;63773;42.282;22.782;2022-11-15T16:51:09;58.00;;;28.63;;
75195;SDS011;63773;42.282;22.782;2022-11-15T16:53:35;61.97;;;29.05;;
75195;SDS011;63773;42.282;22.782;2022-11-15T16:56:00;62.58;;;29.73;;
75195;SDS011;63773;42.282;22.782;2022-11-15T16:58:26;55.63;;;28.45;;
75195;SDS011;63773;42.282;22.782;2022-11-15T17:00:52;64.03;;;27.35;;
75195;SDS011;63773;42.282;22.782;2022-11-15T17:03:19;48.15;;;25.63;;
75195;SDS011;63773;42.282;22.782;2022-11-15T17:05:45;61.33;;;29.10;;
75195;SDS011;63773;42.282;22.782;2022-11-15T17:08:10;60.05;;;29.23;;
75195;SDS011;63773;42.282;22.782;2022-11-15T17:10:37;49.67;;;26.02;;
75195;SDS011;63773;42.282;22.782;2022-11-15T17:13:15;54.70;;;25.98;;
75195;SDS011;63773;42.282;22.782;2022-11-15T17:15:41;58.20;;;28.67;;
75195;SDS011;63773;42.282;22.782;2022-11-15T17:18:09;55.10;;;29.13;;
75195;SDS011;63773;42.282;22.782;2022-11-15T17:20:36;70.03;;;34.13;;
75195;SDS011;63773;42.282;22.782;2022-11-15T17:23:01;64.78;;;32.60;;
75195;SDS011;63773;42.282;22.782;2022-11-15T17:25:27;62.30;;;30.70;;
75195;SDS011;63773;42.282;22.782;2022-11-15T17:27:52;55.50;;;29.60;;
75195;SDS011;63773;42.282;22.782;2022-11-15T17:30:20;58.88;;;30.83;;
75195;SDS011;63773;42.282;22.782;2022-11-15T17:32:45;59.38;;;30.05;;